Portada
METAR-TAF:

METAR-TAF

Aeroports :

Morrisville-Stowe State Airport

Morrisville, Vermont, Estats Units d'Amèrica

latitud: 44-32-10N, longitud: 072-36-58W, altitud: 223 m

Observació

L'informe es va fer fa 25 minuts, a les 01:07 UTC
Vent 10 kt del Sud
Temperatura 23°C
Humitat 78%
Pressió 1014 hPa
Visibilitat: 16.1 km
Escasses núvols a una alçada de 5000 ft

METAR: KMVL 110107Z AUTO 17010KT 10SM FEW050 23/19 A2994 RMK AO2 T02330189

Hora: 21:32 (01:32 UTC)


TAF: manca

Observacions i pronòstics meteorològics de més de 4000 aeroports (METAR i TAF).

Les estacions disponibles són els punts grocs i vermells al mapa.

Posi el ratolí al punt desitjat per veure el nom de l'estació.

Feu clic per veure les observacions i els pronòstics meteorològics.

Per canviar el mapa: feu clic els botons verds amb una creu de color negre per apropar; al botó verd amb un guió per allunyar la imatge; o en les fletxes verdes per a mapes adjacents.


METAR-TAF: